MyTimes logo

TIMES

Webb Imagery

20/01/2005

YMCA at Boroondara Aquathon Series - Race #5

(1.5km run / 250m swim) x3

(Click on competitor name to view personalised results)

Name
Race #
Category
Team Name
Time
(h:mm:ss)
Avg Speed
km/hr
OAll
Place
Cat
Place
DAVIS Colin#759Adult Male0:29:39 10.6 11
WALPOLE Stuart#738Adult Male0:30:12 10.4 22
SHERMAN Leigh#749Adult Male0:31:19 10.1 33
NUNN James#747Adult Male0:32:25 9.7 44
THYNNE Chris#752Adult Male0:34:34 9.1 55
POLLOCK Simon#732Adult Male0:34:56 9 66
PAPPAS Tom#746Junior Male0:34:57 9 71
GILDER Ruth#735Open Team0:37:17 8.4 81
GLAZEBROOK Tim#739Junior Male0:37:18 8.4 92
MC INTOSH Steve#756Adult Male0:37:30 8.4 107
BROWN Andy#740Adult Male0:37:34 8.4 118
LESTER Sarah#736Adult Female0:37:44 8.3 121
FAVALORO Anthony#743Adult Male0:38:02 8.3 139
ISRAEL Ben#758Adult Male0:38:19 8.2 1410
KENNEDY Gina#750Adult Female0:38:53 8.1 152
WORSNOP Peter#757Junior Team0:39:10 8 161
VARNEY John#733Adult Male0:41:01 7.7 1711
WATTY Ben#760Adult Male0:41:39 7.6 1812
LOELIGER Marc#754Adult Male0:41:39 7.6 1913
WEIR Lyle#755Adult Male0:41:55 7.5 2014
MC LEAY Garry#753Adult Male0:42:21 7.4 2115
SANDO Leigh#742Adult Male0:43:27 7.2 2216
VANCE Denis#751Adult Male0:44:49 7 2317
WRIGHT Mark#737Adult Male0:52:08 6 2418
ARMSTRONG David#744Adult Male0:52:39 6 2519
ARMSTRONG Andrew#745Adult Male0:52:53 6 2620
HECIMOVIC Tom#748Adult Male0:00:00 0DNF0
ROBOTIS Peter#741Adult Male0:00:00 0DNF0